createdAt,value
2018-03-29T00:00:26.794Z,2.00
2018-03-29T00:02:55.855Z,2.30
2018-03-29T00:05:24.676Z,2.17
2018-03-29T00:07:53.810Z,2.40
2018-03-29T00:10:22.073Z,2.10
2018-03-29T00:12:51.103Z,2.53
2018-03-29T00:15:19.379Z,2.50
2018-03-29T00:17:48.404Z,2.13
2018-03-29T00:20:16.654Z,2.20
2018-03-29T00:22:45.693Z,2.17
2018-03-29T00:25:13.954Z,2.33
2018-03-29T00:27:42.981Z,2.07
2018-03-29T00:30:11.226Z,2.57
2018-03-29T00:32:39.483Z,2.47
2018-03-29T00:35:07.726Z,2.03
2018-03-29T00:37:36.756Z,2.30
2018-03-29T00:40:05.036Z,2.13
2018-03-29T00:42:33.308Z,2.30
2018-03-29T00:45:02.333Z,2.07
2018-03-29T00:47:30.609Z,2.13
2018-03-29T00:49:58.953Z,1.90
2018-03-29T00:52:27.225Z,2.60
2018-03-29T00:54:55.550Z,2.07
2018-03-29T00:57:23.827Z,2.40
2018-03-29T00:59:52.130Z,2.37
2018-03-29T01:02:20.391Z,2.30
2018-03-29T01:04:49.417Z,2.37
2018-03-29T01:07:17.695Z,2.07
2018-03-29T01:09:45.976Z,2.40
2018-03-29T01:12:14.375Z,2.07
2018-03-29T01:14:42.647Z,2.00
2018-03-29T01:17:10.915Z,2.27
2018-03-29T01:19:39.201Z,2.30
2018-03-29T01:22:07.497Z,2.57
2018-03-29T01:24:35.847Z,2.23
2018-03-29T01:27:04.174Z,2.70
2018-03-29T01:29:32.506Z,2.37
2018-03-29T01:32:00.868Z,2.60
2018-03-29T01:34:29.206Z,2.43
2018-03-29T01:36:57.571Z,2.50
2018-03-29T01:39:25.879Z,2.60
2018-03-29T01:41:54.162Z,2.50
2018-03-29T01:44:22.428Z,2.37
2018-03-29T01:46:50.857Z,2.60
2018-03-29T01:49:19.194Z,2.77
2018-03-29T01:51:47.640Z,2.83
2018-03-29T01:54:15.908Z,2.20
2018-03-29T01:56:44.932Z,2.87
2018-03-29T01:59:13.278Z,2.33
2018-03-29T02:01:41.566Z,2.80
2018-03-29T02:04:09.812Z,2.50
2018-03-29T02:06:38.080Z,2.37
2018-03-29T02:09:06.348Z,2.03
2018-03-29T02:11:34.629Z,2.77
2018-03-29T02:14:02.902Z,2.60
2018-03-29T02:16:31.936Z,2.70
2018-03-29T02:19:00.208Z,2.37
2018-03-29T02:21:28.508Z,2.80
2018-03-29T02:23:56.990Z,2.60
2018-03-29T02:26:25.412Z,2.27
2018-03-29T02:28:53.696Z,2.70
2018-03-29T02:31:22.071Z,2.63
2018-03-29T02:33:50.326Z,2.30
2018-03-29T02:36:19.354Z,2.43
2018-03-29T02:38:47.607Z,2.63
2018-03-29T02:41:16.658Z,2.40
2018-03-29T02:43:44.940Z,2.70
2018-03-29T02:46:13.232Z,2.00
2018-03-29T02:48:41.508Z,2.67
2018-03-29T02:51:11.461Z,2.50
2018-03-29T02:53:39.710Z,2.33
2018-03-29T02:56:08.025Z,2.23
2018-03-29T02:58:36.521Z,2.30
2018-03-29T03:01:05.637Z,2.57
2018-03-29T03:03:33.908Z,2.40
2018-03-29T03:06:02.320Z,2.60
2018-03-29T03:08:31.329Z,2.10
2018-03-29T03:10:59.637Z,2.10
2018-03-29T03:13:27.928Z,2.20
2018-03-29T03:15:56.233Z,2.30
2018-03-29T03:18:24.550Z,2.40
2018-03-29T03:20:52.789Z,2.43
2018-03-29T03:23:21.088Z,2.70
2018-03-29T03:25:49.385Z,2.17
2018-03-29T03:28:17.665Z,2.10
2018-03-29T03:30:45.923Z,2.47
2018-03-29T03:33:14.239Z,2.50
2018-03-29T03:35:42.624Z,1.87
2018-03-29T03:38:10.996Z,2.63
2018-03-29T03:40:39.266Z,2.53
2018-03-29T03:43:08.293Z,2.13
2018-03-29T03:45:36.547Z,2.23
2018-03-29T03:48:04.873Z,2.47
2018-03-29T03:50:33.128Z,2.30
2018-03-29T03:53:01.393Z,2.20
2018-03-29T03:55:29.678Z,2.20
2018-03-29T03:57:58.049Z,2.30
2018-03-29T04:00:26.339Z,2.40
2018-03-29T04:02:54.636Z,2.10
2018-03-29T04:05:22.884Z,2.10
2018-03-29T04:07:51.911Z,2.20
2018-03-29T04:10:20.198Z,2.10
2018-03-29T04:12:48.496Z,2.20
2018-03-29T04:15:16.844Z,1.87
2018-03-29T04:17:45.220Z,2.07
2018-03-29T04:20:13.485Z,2.30
2018-03-29T04:22:41.844Z,2.20
2018-03-29T04:25:10.868Z,2.00
2018-03-29T04:27:39.136Z,1.90
2018-03-29T04:30:08.756Z,2.17
2018-03-29T04:32:37.781Z,2.20
2018-03-29T04:35:06.050Z,2.10
2018-03-29T04:37:35.075Z,2.20
2018-03-29T04:40:03.322Z,2.20
2018-03-29T04:42:31.597Z,2.30
2018-03-29T04:44:59.967Z,2.30
2018-03-29T04:47:28.249Z,2.10
2018-03-29T04:49:56.547Z,2.23
2018-03-29T04:52:24.888Z,2.97
2018-03-29T04:54:54.504Z,2.10
2018-03-29T04:57:23.582Z,2.27
2018-03-29T04:59:51.903Z,2.90
2018-03-29T05:02:20.238Z,2.40
2018-03-29T05:04:48.546Z,2.70
2018-03-29T05:07:16.820Z,2.60
2018-03-29T05:09:45.090Z,2.50
2018-03-29T05:12:13.379Z,2.33
2018-03-29T05:14:41.628Z,3.00
2018-03-29T05:17:09.893Z,2.50
2018-03-29T05:19:38.126Z,2.37
2018-03-29T05:22:07.170Z,2.23
2018-03-29T05:24:35.442Z,1.93
2018-03-29T05:27:03.694Z,2.37
2018-03-29T05:29:31.938Z,2.70
2018-03-29T05:32:00.215Z,2.40
2018-03-29T05:34:28.507Z,2.40
2018-03-29T05:36:57.947Z,2.60
2018-03-29T05:39:26.261Z,2.50
2018-03-29T05:41:54.683Z,2.67
2018-03-29T05:44:22.984Z,2.60
2018-03-29T05:46:52.056Z,2.60
2018-03-29T05:49:20.390Z,2.53
2018-03-29T05:51:48.671Z,2.43
2018-03-29T05:54:16.994Z,2.50
2018-03-29T05:56:45.274Z,2.70
2018-03-29T05:59:13.656Z,2.47
2018-03-29T06:01:41.904Z,2.60
2018-03-29T06:04:10.940Z,2.20
2018-03-29T06:06:39.248Z,2.60
2018-03-29T06:09:08.746Z,2.40
2018-03-29T06:11:37.768Z,2.60
2018-03-29T06:14:08.116Z,2.40
2018-03-29T06:16:41.899Z,2.87
2018-03-29T06:19:11.017Z,2.80
2018-03-29T06:21:40.126Z,3.07
2018-03-29T06:24:08.420Z,3.03
2018-03-29T06:26:36.683Z,2.87
2018-03-29T06:29:04.970Z,2.80
2018-03-29T06:31:34.364Z,2.60
2018-03-29T06:34:02.674Z,2.40
2018-03-29T06:36:31.021Z,2.77
2018-03-29T06:38:59.408Z,2.57
2018-03-29T06:41:27.704Z,2.63
2018-03-29T06:43:55.979Z,2.80
2018-03-29T06:46:24.312Z,2.87
2018-03-29T06:48:53.415Z,2.70
2018-03-29T06:51:23.194Z,2.53
2018-03-29T06:53:51.485Z,3.20
2018-03-29T06:56:20.526Z,3.00
2018-03-29T06:58:48.821Z,3.10
2018-03-29T07:01:17.132Z,3.13
2018-03-29T07:03:45.471Z,2.83
2018-03-29T07:06:13.736Z,3.23
2018-03-29T07:08:42.024Z,3.00
2018-03-29T07:11:10.355Z,2.90
2018-03-29T07:13:38.629Z,3.07
2018-03-29T07:16:06.908Z,3.03
2018-03-29T07:18:35.182Z,3.17
2018-03-29T07:21:04.224Z,3.53
2018-03-29T07:23:32.505Z,3.27
2018-03-29T07:26:00.752Z,2.80
2018-03-29T07:28:29.809Z,3.13
2018-03-29T07:30:58.150Z,2.73
2018-03-29T07:33:27.224Z,2.80
2018-03-29T07:35:55.511Z,2.70
2018-03-29T07:38:23.805Z,2.80
2018-03-29T07:40:52.059Z,2.80
2018-03-29T07:43:20.344Z,2.77
2018-03-29T07:45:48.648Z,3.20
2018-03-29T07:48:16.917Z,2.90
2018-03-29T07:50:45.211Z,2.80
2018-03-29T07:53:13.546Z,3.20
2018-03-29T07:55:41.815Z,2.43
2018-03-29T07:58:10.086Z,2.67
2018-03-29T08:00:38.426Z,2.73
2018-03-29T08:03:06.691Z,2.80
2018-03-29T08:05:34.988Z,2.47
2018-03-29T08:08:04.031Z,3.00
2018-03-29T08:10:33.088Z,3.37
2018-03-29T08:13:01.350Z,2.87
2018-03-29T08:15:29.636Z,3.20
2018-03-29T08:17:58.666Z,2.80
2018-03-29T08:20:26.984Z,2.90
2018-03-29T08:22:55.315Z,2.70
2018-03-29T08:25:23.665Z,2.70
2018-03-29T08:27:51.925Z,2.70
2018-03-29T08:30:20.980Z,2.43
2018-03-29T08:32:49.268Z,2.80
2018-03-29T08:35:17.525Z,2.87
2018-03-29T08:37:45.801Z,2.80
2018-03-29T08:40:14.063Z,2.77
2018-03-29T08:42:42.324Z,2.63
2018-03-29T08:45:10.579Z,2.37
2018-03-29T08:47:38.844Z,2.37
2018-03-29T08:50:07.122Z,2.50
2018-03-29T08:52:35.374Z,2.60
2018-03-29T08:55:04.417Z,2.30
2018-03-29T08:57:32.728Z,2.50
2018-03-29T09:00:01.114Z,2.27
2018-03-29T09:02:29.380Z,2.10
2018-03-29T09:04:59.199Z,2.50
2018-03-29T09:07:28.237Z,2.40
2018-03-29T09:09:56.614Z,2.27
2018-03-29T09:12:24.942Z,2.13
2018-03-29T09:14:53.324Z,2.40
2018-03-29T09:17:21.568Z,2.40
2018-03-29T09:19:50.693Z,1.97
2018-03-29T09:22:19.046Z,2.20
2018-03-29T09:24:47.371Z,2.30
2018-03-29T09:27:15.675Z,2.13
2018-03-29T09:29:44.060Z,2.13
2018-03-29T09:32:12.331Z,2.30
2018-03-29T09:34:41.470Z,2.50
2018-03-29T09:37:09.746Z,2.03
2018-03-29T09:39:38.016Z,1.90
2018-03-29T09:42:07.028Z,1.90
2018-03-29T09:44:36.088Z,2.07
2018-03-29T09:47:04.356Z,1.90
2018-03-29T09:49:32.624Z,2.43
2018-03-29T09:52:00.868Z,2.30
2018-03-29T09:54:29.325Z,1.87
2018-03-29T09:56:57.800Z,2.17
2018-03-29T09:59:26.094Z,2.43
2018-03-29T10:01:54.413Z,2.57
2018-03-29T10:04:22.693Z,1.90
2018-03-29T10:09:51.602Z,1.90
2018-03-29T10:12:20.636Z,2.00
2018-03-29T10:14:48.927Z,2.23
2018-03-29T10:17:17.184Z,1.77
2018-03-29T10:19:45.442Z,2.10
2018-03-29T10:22:13.727Z,1.90
2018-03-29T10:24:42.049Z,1.90
2018-03-29T10:27:11.082Z,2.20
2018-03-29T10:29:40.188Z,2.03
2018-03-29T10:32:08.460Z,1.93
2018-03-29T10:34:36.724Z,2.00
2018-03-29T10:37:05.779Z,2.60
2018-03-29T10:39:34.040Z,2.00
2018-03-29T10:42:03.153Z,2.30
2018-03-29T10:44:32.178Z,2.10
2018-03-29T10:47:00.470Z,2.03
2018-03-29T10:49:28.740Z,1.90
2018-03-29T10:51:57.777Z,2.07
2018-03-29T10:54:26.069Z,2.10
2018-03-29T10:56:54.388Z,2.30
2018-03-29T10:59:23.438Z,2.30
2018-03-29T11:01:51.713Z,2.07
2018-03-29T11:04:20.785Z,2.23
2018-03-29T11:06:49.233Z,2.07
2018-03-29T11:09:17.503Z,2.20
2018-03-29T11:11:46.560Z,1.67
2018-03-29T11:14:14.827Z,1.70
2018-03-29T11:16:43.187Z,1.87
2018-03-29T11:19:12.328Z,1.70
2018-03-29T11:21:40.597Z,1.90
2018-03-29T11:24:09.818Z,1.90
2018-03-29T11:26:38.233Z,2.10
2018-03-29T11:29:06.498Z,2.40
2018-03-29T11:31:34.782Z,2.60
2018-03-29T11:34:03.798Z,2.30
2018-03-29T11:36:32.154Z,2.70
2018-03-29T11:39:01.200Z,2.37
2018-03-29T11:41:29.475Z,2.80
2018-03-29T11:43:57.731Z,2.20
2018-03-29T11:46:26.020Z,2.70
2018-03-29T11:48:54.300Z,2.53
2018-03-29T11:51:22.584Z,2.67
2018-03-29T11:53:51.650Z,2.53
2018-03-29T11:56:19.921Z,2.40
2018-03-29T11:58:49.033Z,2.57
2018-03-29T12:01:18.160Z,2.20
2018-03-29T12:03:46.452Z,2.70
2018-03-29T12:06:14.850Z,2.43
2018-03-29T12:08:43.151Z,2.30
2018-03-29T12:11:11.477Z,2.70
2018-03-29T12:13:40.534Z,2.10
2018-03-29T12:16:09.106Z,2.37
2018-03-29T12:18:38.163Z,2.50
2018-03-29T12:21:07.593Z,2.37
2018-03-29T12:23:35.894Z,2.20
2018-03-29T12:26:04.225Z,2.70
2018-03-29T12:28:33.668Z,2.30
2018-03-29T12:31:01.943Z,2.40
2018-03-29T12:33:30.236Z,2.20
2018-03-29T12:35:58.591Z,2.47
2018-03-29T12:38:27.651Z,2.47
2018-03-29T12:40:56.047Z,2.50
2018-03-29T12:43:24.499Z,2.60
2018-03-29T12:45:52.795Z,2.17
2018-03-29T12:48:21.113Z,2.30
2018-03-29T12:50:49.364Z,2.23
2018-03-29T12:53:17.642Z,2.23
2018-03-29T12:55:46.714Z,1.87
2018-03-29T12:58:14.973Z,2.00
2018-03-29T13:00:43.333Z,2.00
2018-03-29T13:03:11.670Z,1.93
2018-03-29T13:05:39.943Z,2.17
2018-03-29T13:08:08.220Z,2.63
2018-03-29T13:10:36.480Z,2.27
2018-03-29T13:13:04.756Z,2.30
2018-03-29T13:15:33.020Z,2.00
2018-03-29T13:18:01.300Z,2.80
2018-03-29T13:20:29.588Z,2.40
2018-03-29T13:22:57.861Z,2.73
2018-03-29T13:25:26.173Z,2.03
2018-03-29T13:27:54.462Z,2.30
2018-03-29T13:30:23.493Z,2.17
2018-03-29T13:32:51.832Z,1.90
2018-03-29T13:35:20.101Z,2.63
2018-03-29T13:37:49.152Z,2.30
2018-03-29T13:40:17.424Z,2.33
2018-03-29T13:42:45.817Z,2.20
2018-03-29T13:45:14.123Z,2.20
2018-03-29T13:47:42.508Z,1.90
2018-03-29T13:50:10.784Z,2.03
2018-03-29T13:52:39.056Z,2.17
2018-03-29T13:55:07.323Z,2.10
2018-03-29T13:57:36.963Z,1.90
2018-03-29T14:00:06.856Z,1.87
2018-03-29T14:02:35.125Z,1.70
2018-03-29T14:05:04.192Z,1.90
2018-03-29T14:07:33.246Z,1.73
2018-03-29T14:10:01.546Z,1.70
2018-03-29T14:12:29.827Z,1.90
2018-03-29T14:14:58.107Z,1.80
2018-03-29T14:17:26.428Z,1.90
2018-03-29T14:19:55.514Z,1.70
2018-03-29T14:22:25.771Z,1.70
2018-03-29T14:24:55.683Z,2.23
2018-03-29T14:27:23.944Z,1.70
2018-03-29T14:29:52.220Z,1.57
2018-03-29T14:32:20.486Z,1.60
2018-03-29T14:34:49.526Z,1.77
2018-03-29T14:37:17.785Z,1.80
2018-03-29T14:39:46.077Z,1.30
2018-03-29T14:42:14.408Z,1.90
2018-03-29T14:44:42.700Z,1.57
2018-03-29T14:47:10.960Z,1.50
2018-03-29T14:49:39.335Z,1.57
2018-03-29T14:52:08.946Z,1.40
2018-03-29T14:54:38.022Z,1.40
2018-03-29T14:57:07.065Z,1.37
2018-03-29T14:59:36.118Z,1.83
2018-03-29T15:02:04.481Z,1.50
2018-03-29T15:04:32.771Z,1.80
2018-03-29T15:07:01.037Z,1.30
2018-03-29T15:09:30.095Z,1.60
2018-03-29T15:11:58.365Z,1.63
2018-03-29T15:14:27.445Z,1.40
2018-03-29T15:16:56.489Z,1.90
2018-03-29T15:19:24.826Z,1.70
2018-03-29T15:21:53.906Z,1.60
2018-03-29T15:24:22.183Z,1.67
2018-03-29T15:26:50.448Z,1.47
2018-03-29T15:29:18.716Z,1.50
2018-03-29T15:31:47.733Z,1.50
2018-03-29T15:34:16.764Z,1.57
2018-03-29T15:36:45.020Z,1.60
2018-03-29T15:39:14.075Z,1.50
2018-03-29T15:41:42.328Z,1.40
2018-03-29T15:44:11.956Z,1.80
2018-03-29T15:46:40.988Z,1.50
2018-03-29T15:49:09.260Z,1.53
2018-03-29T15:51:37.528Z,1.60
2018-03-29T15:54:06.577Z,1.40
2018-03-29T15:56:34.837Z,1.50
2018-03-29T15:59:03.926Z,1.63
2018-03-29T16:01:32.197Z,1.33
2018-03-29T16:04:00.455Z,1.30
2018-03-29T16:06:28.737Z,1.40
2018-03-29T16:08:56.999Z,1.40
2018-03-29T16:11:25.284Z,1.50
2018-03-29T16:13:54.343Z,1.30
2018-03-29T16:16:22.640Z,1.50
2018-03-29T16:18:50.893Z,1.67
2018-03-29T16:21:19.161Z,1.57
2018-03-29T16:23:47.567Z,1.47
2018-03-29T16:26:15.846Z,1.43
2018-03-29T16:28:44.866Z,1.30
2018-03-29T16:31:13.196Z,1.43
2018-03-29T16:33:41.457Z,1.50
2018-03-29T16:36:09.733Z,1.40
2018-03-29T16:38:37.980Z,1.27
2018-03-29T16:41:06.248Z,1.53
2018-03-29T16:43:34.505Z,1.50
2018-03-29T16:46:04.280Z,1.40
2018-03-29T16:48:33.879Z,1.60
2018-03-29T16:51:02.164Z,1.50
2018-03-29T16:53:30.421Z,1.60
2018-03-29T16:55:58.696Z,1.80
2018-03-29T16:58:27.738Z,1.63
2018-03-29T17:00:56.024Z,1.67
2018-03-29T17:03:24.316Z,1.80
2018-03-29T17:05:52.588Z,1.70
2018-03-29T17:08:20.848Z,1.47
2018-03-29T17:10:49.163Z,1.70
2018-03-29T17:13:17.416Z,1.50
2018-03-29T17:15:46.272Z,1.87
2018-03-29T17:18:14.524Z,1.83
2018-03-29T17:20:44.305Z,1.70
2018-03-29T17:23:12.576Z,1.83
2018-03-29T17:25:40.842Z,1.50
2018-03-29T17:28:09.864Z,1.77
2018-03-29T17:30:38.135Z,1.90
2018-03-29T17:33:07.525Z,7.07
2018-03-29T17:35:35.821Z,2.40
2018-03-29T17:38:04.855Z,2.10
2018-03-29T17:40:33.117Z,1.70
2018-03-29T17:43:02.156Z,1.50
2018-03-29T17:45:30.408Z,1.83
2018-03-29T17:47:58.747Z,1.97
2018-03-29T17:50:26.969Z,1.90
2018-03-29T17:52:55.278Z,1.83
2018-03-29T17:55:24.975Z,2.00
2018-03-29T17:57:53.268Z,1.60
2018-03-29T18:00:21.530Z,1.90
2018-03-29T18:02:49.838Z,2.13
2018-03-29T18:05:18.087Z,1.87
2018-03-29T18:07:47.292Z,1.63
2018-03-29T18:10:15.586Z,1.80
2018-03-29T18:12:43.870Z,2.30
2018-03-29T18:15:12.131Z,1.73
2018-03-29T18:17:40.405Z,3.93
2018-03-29T18:20:08.683Z,5.70
2018-03-29T18:22:36.939Z,5.03
2018-03-29T18:25:05.208Z,3.43
2018-03-29T18:27:34.244Z,2.10
2018-03-29T18:30:02.514Z,2.63
2018-03-29T18:32:30.838Z,2.00
2018-03-29T18:34:59.174Z,2.00
2018-03-29T18:37:27.520Z,2.47
2018-03-29T18:39:55.911Z,2.40
2018-03-29T18:42:25.587Z,2.30
2018-03-29T18:44:53.856Z,3.43
2018-03-29T18:47:22.908Z,15.37
2018-03-29T18:49:51.162Z,3.70
2018-03-29T18:52:20.478Z,4.87
2018-03-29T18:54:49.624Z,2.03
2018-03-29T18:57:17.908Z,3.10
2018-03-29T18:59:47.300Z,2.07
2018-03-29T19:02:16.981Z,1.90
2018-03-29T19:04:45.250Z,1.47
2018-03-29T19:07:13.532Z,2.30
2018-03-29T19:09:41.840Z,1.97
2018-03-29T19:12:10.112Z,1.50
2018-03-29T19:14:38.417Z,1.60
2018-03-29T19:17:06.727Z,1.70
2018-03-29T19:19:35.067Z,1.90
2018-03-29T19:22:04.093Z,1.97
2018-03-29T19:24:32.368Z,1.70
2018-03-29T19:27:00.689Z,1.80
2018-03-29T19:29:29.050Z,3.83
2018-03-29T19:31:57.387Z,3.10
2018-03-29T19:34:26.613Z,2.13
2018-03-29T19:36:54.902Z,1.67
2018-03-29T19:39:23.963Z,2.07
2018-03-29T19:41:52.283Z,1.47
2018-03-29T19:44:20.611Z,2.60
2018-03-29T19:46:48.898Z,1.90
2018-03-29T19:49:18.055Z,1.90
2018-03-29T19:51:46.429Z,2.13
2018-03-29T19:54:14.745Z,2.03
2018-03-29T19:56:43.029Z,1.77
2018-03-29T19:59:11.332Z,1.80
2018-03-29T20:01:39.597Z,1.90
2018-03-29T20:04:08.664Z,2.13
2018-03-29T20:06:37.697Z,2.20
2018-03-29T20:09:06.072Z,2.20
2018-03-29T20:11:34.340Z,3.30
2018-03-29T20:14:02.613Z,3.00
2018-03-29T20:16:30.885Z,2.20
2018-03-29T20:18:59.172Z,2.10
2018-03-29T20:21:27.532Z,2.00
2018-03-29T20:23:55.803Z,2.90
2018-03-29T20:26:24.119Z,6.23
2018-03-29T20:28:52.761Z,7.87
2018-03-29T20:31:21.813Z,10.07
2018-03-29T20:33:50.938Z,7.53
2018-03-29T20:36:19.212Z,7.43
2018-03-29T20:38:47.532Z,5.50
2018-03-29T20:41:15.814Z,8.83
2018-03-29T20:43:44.096Z,7.27
2018-03-29T20:46:12.398Z,4.80
2018-03-29T20:48:40.681Z,6.40
2018-03-29T20:51:08.992Z,7.50
2018-03-29T20:53:37.255Z,8.20
2018-03-29T20:56:05.551Z,7.87
2018-03-29T20:58:33.872Z,6.87
2018-03-29T21:01:02.948Z,5.77
2018-03-29T21:03:31.240Z,5.10
2018-03-29T21:05:59.605Z,4.03
2018-03-29T21:08:27.929Z,3.60
2018-03-29T21:10:56.337Z,3.03
2018-03-29T21:13:24.695Z,2.80
2018-03-29T21:15:52.990Z,3.03
2018-03-29T21:18:22.350Z,2.57
2018-03-29T21:20:51.440Z,2.83
2018-03-29T21:23:20.527Z,2.50
2018-03-29T21:25:48.864Z,2.67
2018-03-29T21:28:17.218Z,2.60
2018-03-29T21:30:45.597Z,2.37
2018-03-29T21:33:13.878Z,2.80
2018-03-29T21:35:42.249Z,2.80
2018-03-29T21:38:10.519Z,2.67
2018-03-29T21:40:39.649Z,2.60
2018-03-29T21:43:07.964Z,2.20
2018-03-29T21:45:36.167Z,2.87
2018-03-29T21:48:04.412Z,2.27
2018-03-29T21:50:32.725Z,2.37
2018-03-29T21:53:00.989Z,2.67
2018-03-29T21:55:29.271Z,2.70
2018-03-29T21:57:57.555Z,2.63
2018-03-29T22:00:26.644Z,2.77
2018-03-29T22:02:55.005Z,2.67
2018-03-29T22:05:23.258Z,2.47
2018-03-29T22:07:51.529Z,2.33
2018-03-29T22:10:20.589Z,2.90
2018-03-29T22:12:48.856Z,2.50
2018-03-29T22:15:17.132Z,2.60
2018-03-29T22:17:45.399Z,3.13
2018-03-29T22:20:14.417Z,3.00
2018-03-29T22:22:42.709Z,3.00
2018-03-29T22:25:10.991Z,2.57
2018-03-29T22:27:39.215Z,2.40
2018-03-29T22:30:07.455Z,2.60
2018-03-29T22:32:36.498Z,3.03
2018-03-29T22:35:04.751Z,2.70
2018-03-29T22:37:33.041Z,3.57
2018-03-29T22:40:02.057Z,2.93
2018-03-29T22:42:31.090Z,2.80
2018-03-29T22:44:59.375Z,2.90
2018-03-29T22:47:27.634Z,2.77
2018-03-29T22:49:56.787Z,3.43
2018-03-29T22:52:25.055Z,3.87
2018-03-29T22:54:53.322Z,3.60
2018-03-29T22:57:22.355Z,4.10
2018-03-29T22:59:50.616Z,4.10
2018-03-29T23:02:19.645Z,3.07
2018-03-29T23:04:47.903Z,3.90
2018-03-29T23:07:17.763Z,3.67
2018-03-29T23:09:46.049Z,3.47
2018-03-29T23:12:14.355Z,3.90
2018-03-29T23:14:42.628Z,4.27
2018-03-29T23:17:10.897Z,3.83
2018-03-29T23:19:39.907Z,3.30
2018-03-29T23:22:08.973Z,3.40
2018-03-29T23:24:37.220Z,3.73
2018-03-29T23:27:06.256Z,3.77
2018-03-29T23:29:34.517Z,4.43
2018-03-29T23:32:02.793Z,3.83
2018-03-29T23:34:31.810Z,3.80
2018-03-29T23:37:00.833Z,4.10
2018-03-29T23:39:29.200Z,3.57
2018-03-29T23:41:58.251Z,3.60
2018-03-29T23:44:26.545Z,3.60
2018-03-29T23:46:54.837Z,4.10
2018-03-29T23:49:23.182Z,3.60
2018-03-29T23:51:51.433Z,3.80
2018-03-29T23:54:19.781Z,4.20
2018-03-29T23:56:49.186Z,4.03
2018-03-29T23:59:17.558Z,4.13
